Starachowice, Poland
Current Conditions -  °F | °C
As of 8:00 PM on Friday 31 Oct 2014 (Local Time) from EPLB Reporting Station
Overcast Overcast  
Wind Chill: 41°   Ceiling: 1800
Heat Index: 41°   Visibility: 4mi
Dew Point: 37°   Wind: 3mph
Humidity: 87%   Direction: 300°WNW
Pressure: 30.33"   Gusts: NA
Location:  51.06°N, 21.07°E
Report Text: EPLB 311800Z 30003KT 6000 OVC018 05/03 Q1027
Loading
Personal Weather Stations






























Interactive Weather Map
Tropical Storm Tracking
New forecast layout! Learn more

10-Day Weather Forecast

Advertisements
Track Severe Weather on mobile